Terminal Aerodrome Forecast
Issued by NWS

Home | Current Version | Previous Version | Text Only | Print | Product List | Glossary On
Versions: 1 2 3 4 5 6 7 8 9 10 11 12 13 14 15 16 17 18 19 20 21 22 23 24 25 26 27 28 29
000
FTUS43 KMQT 260532
TAFIWD
TAF
KIWD 260532Z 2606/2706 27005KT 5SM -SHSN SCT019 OVC026
     FM261200 28006KT P6SM VCSH BKN025
     FM262000 27005KT P6SM SCT060
     FM270500 24005KT P6SM FEW200=

USA.gov is the U.S. government's official web portal to all federal, state and local government web resources and services.